createdAt,value
2018-08-23T00:00:02.245Z,107.23
2018-08-23T00:02:37.459Z,108.07
2018-08-23T00:05:10.848Z,108.13
2018-08-23T00:07:45.545Z,106.43
2018-08-23T00:10:19.707Z,106.70
2018-08-23T00:12:57.347Z,103.63
2018-08-23T00:15:34.380Z,104.67
2018-08-23T00:18:10.101Z,105.20
2018-08-23T00:20:43.784Z,103.03
2018-08-23T00:23:19.680Z,103.50
2018-08-23T00:25:53.431Z,98.63
2018-08-23T00:28:28.512Z,96.10
2018-08-23T00:31:02.848Z,94.00
2018-08-23T00:33:36.182Z,91.73
2018-08-23T00:36:12.021Z,93.13
2018-08-23T00:38:47.598Z,94.17
2018-08-23T00:41:27.446Z,90.50
2018-08-23T00:44:02.988Z,90.40
2018-08-23T00:46:39.301Z,89.90
2018-08-23T00:49:15.233Z,90.43
2018-08-23T00:51:50.059Z,85.90
2018-08-23T00:54:23.419Z,87.30
2018-08-23T00:56:56.787Z,86.97
2018-08-23T00:59:30.124Z,86.57
2018-08-23T01:02:11.799Z,87.87
2018-08-23T01:04:53.069Z,87.77
2018-08-23T01:07:31.027Z,88.23
2018-08-23T01:10:05.622Z,88.70
2018-08-23T01:13:03.040Z,89.60
2018-08-23T01:15:37.633Z,91.77
2018-08-23T01:18:17.659Z,90.60
2018-08-23T01:20:52.728Z,91.50
2018-08-23T01:23:26.215Z,89.57
2018-08-23T01:26:02.392Z,91.30
2018-08-23T01:28:38.651Z,94.23
2018-08-23T01:31:27.330Z,91.37
2018-08-23T01:34:02.875Z,91.87
2018-08-23T01:36:37.615Z,89.93
2018-08-23T01:39:13.022Z,89.53
2018-08-23T01:41:47.169Z,90.57
2018-08-23T01:44:21.125Z,91.90
2018-08-23T01:46:56.212Z,89.37
2018-08-23T01:49:30.951Z,91.77
2018-08-23T01:52:06.936Z,93.13
2018-08-23T01:54:42.630Z,93.50
2018-08-23T01:57:21.093Z,90.20
2018-08-23T01:59:57.999Z,90.10
2018-08-23T02:02:32.474Z,93.57
2018-08-23T02:05:06.225Z,92.67
2018-08-23T02:07:40.116Z,93.80
2018-08-23T02:10:14.871Z,96.03
2018-08-23T02:12:53.333Z,95.77
2018-08-23T02:15:26.771Z,97.67
2018-08-23T02:18:01.512Z,102.57
2018-08-23T02:20:36.552Z,103.87
2018-08-23T02:23:22.954Z,106.37
2018-08-23T02:26:14.974Z,103.73
2018-08-23T02:28:55.516Z,103.07
2018-08-23T02:34:52.605Z,104.83
2018-08-23T02:37:26.143Z,103.00
2018-08-23T02:39:59.599Z,105.07
2018-08-23T02:42:33.887Z,104.33
2018-08-23T02:45:10.427Z,102.53
2018-08-23T02:47:44.450Z,103.63
2018-08-23T02:50:18.775Z,100.60
2018-08-23T02:52:52.331Z,102.37
2018-08-23T02:55:26.090Z,102.40
2018-08-23T02:58:04.458Z,104.57
2018-08-23T03:00:42.004Z,103.60
2018-08-23T03:03:16.007Z,104.37
2018-08-23T03:05:50.105Z,102.93
2018-08-23T03:08:32.955Z,102.33
2018-08-23T03:11:07.070Z,104.47
2018-08-23T03:13:43.886Z,101.77
2018-08-23T03:16:17.500Z,103.80
2018-08-23T03:18:51.544Z,102.57
2018-08-23T03:21:25.119Z,100.03
2018-08-23T03:23:58.739Z,104.03
2018-08-23T03:26:33.722Z,103.77
2018-08-23T03:29:07.631Z,103.43
2018-08-23T03:31:42.207Z,104.27
2018-08-23T03:34:17.753Z,102.93
2018-08-23T03:36:52.430Z,103.13
2018-08-23T03:39:27.767Z,103.93
2018-08-23T03:42:04.176Z,102.23
2018-08-23T03:44:40.559Z,108.00
2018-08-23T03:47:13.840Z,108.97
2018-08-23T03:49:48.849Z,108.00
2018-08-23T03:52:26.063Z,111.50
2018-08-23T03:55:03.034Z,113.83
2018-08-23T03:57:40.870Z,117.77
2018-08-23T04:00:15.216Z,122.67
2018-08-23T04:02:49.965Z,119.87
2018-08-23T04:05:25.493Z,118.40
2018-08-23T04:08:00.882Z,118.87
2018-08-23T04:10:35.557Z,119.70
2018-08-23T04:13:12.467Z,113.53
2018-08-23T04:15:48.934Z,112.50
2018-08-23T04:18:28.520Z,109.53
2018-08-23T04:21:04.185Z,109.30
2018-08-23T04:23:41.181Z,108.07
2018-08-23T04:26:20.493Z,105.90
2018-08-23T04:28:56.732Z,94.53
2018-08-23T04:31:32.901Z,91.57
2018-08-23T04:34:14.606Z,87.70
2018-08-23T04:36:51.354Z,88.77
2018-08-23T04:39:26.702Z,86.10
2018-08-23T04:42:04.789Z,88.67
2018-08-23T04:44:45.985Z,86.97
2018-08-23T04:47:21.094Z,85.83
2018-08-23T04:49:58.101Z,85.20
2018-08-23T04:52:35.955Z,84.97
2018-08-23T04:55:10.995Z,83.63
2018-08-23T04:57:46.378Z,82.67
2018-08-23T05:00:21.119Z,82.97
2018-08-23T05:02:55.534Z,84.13
2018-08-23T05:05:32.731Z,80.83
2018-08-23T05:08:09.666Z,83.53
2018-08-23T05:10:47.918Z,81.90
2018-08-23T05:13:24.028Z,84.87
2018-08-23T05:16:00.367Z,81.00
2018-08-23T05:18:35.014Z,83.23
2018-08-23T05:21:11.200Z,83.10
2018-08-23T05:23:46.957Z,83.17
2018-08-23T05:26:24.968Z,85.17
2018-08-23T05:29:08.491Z,83.57
2018-08-23T05:31:44.058Z,85.63
2018-08-23T05:34:21.204Z,83.17
2018-08-23T05:36:57.149Z,83.53
2018-08-23T05:39:44.607Z,85.87
2018-08-23T05:42:20.869Z,88.87
2018-08-23T05:44:55.238Z,85.80
2018-08-23T05:47:33.370Z,88.77
2018-08-23T05:50:07.363Z,89.13
2018-08-23T05:52:42.215Z,89.50
2018-08-23T05:55:16.814Z,92.37
2018-08-23T05:57:52.186Z,90.63
2018-08-23T06:00:29.972Z,96.07
2018-08-23T06:03:04.152Z,94.50
2018-08-23T06:05:40.114Z,94.90
2018-08-23T06:08:15.244Z,96.73
2018-08-23T06:10:56.966Z,94.03
2018-08-23T06:13:31.287Z,97.13
2018-08-23T06:16:06.640Z,94.33
2018-08-23T06:18:41.778Z,93.37
2018-08-23T06:21:16.231Z,92.97
2018-08-23T06:24:00.355Z,95.80
2018-08-23T06:26:56.508Z,95.17
2018-08-23T06:29:34.814Z,95.13
2018-08-23T06:32:12.151Z,92.13
2018-08-23T06:34:55.192Z,94.60
2018-08-23T06:37:35.632Z,94.97
2018-08-23T06:40:17.273Z,96.73
2018-08-23T06:43:02.143Z,96.47
2018-08-23T06:45:38.571Z,95.37
2018-08-23T06:48:13.599Z,96.63
2018-08-23T06:50:51.513Z,97.30
2018-08-23T06:53:31.152Z,95.87
2018-08-23T06:56:04.754Z,97.90
2018-08-23T06:58:39.994Z,100.43
2018-08-23T07:01:27.019Z,97.03
2018-08-23T07:04:06.472Z,100.70
2018-08-23T07:06:44.425Z,96.93
2018-08-23T07:09:24.107Z,97.63
2018-08-23T07:12:07.615Z,96.50
2018-08-23T07:14:45.216Z,99.27
2018-08-23T07:17:23.192Z,97.10
2018-08-23T07:19:56.835Z,97.27
2018-08-23T07:22:32.146Z,96.80
2018-08-23T07:25:05.582Z,98.73
2018-08-23T07:27:38.888Z,99.90
2018-08-23T07:30:17.872Z,99.80
2018-08-23T07:32:52.390Z,101.00
2018-08-23T07:35:25.913Z,103.13
2018-08-23T07:37:59.727Z,100.23
2018-08-23T07:40:33.033Z,99.33
2018-08-23T07:43:06.346Z,100.80
2018-08-23T14:37:09.215Z,43.83
2018-08-23T14:39:45.142Z,45.03
2018-08-23T14:42:19.040Z,45.30
2018-08-23T14:44:52.369Z,45.67
2018-08-23T14:47:34.275Z,44.70
2018-08-23T14:50:07.545Z,36.77
2018-08-23T14:52:41.237Z,37.60
2018-08-23T14:55:18.638Z,36.33
2018-08-23T15:01:42.071Z,34.30
2018-08-23T15:07:06.815Z,34.63
2018-08-23T15:09:49.789Z,32.90
2018-08-23T15:15:51.888Z,18.37
2018-08-23T15:18:45.289Z,16.70
2018-08-23T15:24:47.239Z,5.60
2018-08-23T15:27:23.741Z,3.87
2018-08-23T15:30:00.614Z,3.77
2018-08-23T15:35:50.270Z,3.07
2018-08-23T15:38:26.850Z,3.13
2018-08-23T15:44:30.854Z,3.10
2018-08-23T15:47:29.636Z,2.57
2018-08-23T15:50:07.830Z,3.20
2018-08-23T15:52:47.952Z,3.70
2018-08-23T15:55:30.098Z,2.80
2018-08-23T15:58:08.461Z,2.27
2018-08-23T16:00:46.250Z,2.83
2018-08-23T16:03:20.482Z,3.47
2018-08-23T16:06:08.188Z,3.00
2018-08-23T16:08:47.144Z,2.80
2018-08-23T16:11:28.020Z,2.70
2018-08-23T16:14:07.481Z,2.53
2018-08-23T16:16:51.273Z,2.67
2018-08-23T16:19:29.543Z,2.60
2018-08-23T16:22:03.019Z,2.67
2018-08-23T16:24:38.013Z,2.57
2018-08-23T16:30:43.949Z,2.37
2018-08-23T16:37:00.620Z,3.00
2018-08-23T16:40:05.853Z,3.60
2018-08-23T16:42:55.261Z,3.50
2018-08-23T16:48:57.146Z,3.83
2018-08-23T16:55:17.730Z,3.10
2018-08-23T17:08:33.199Z,3.50
2018-08-23T17:11:33.740Z,3.87
2018-08-23T17:14:15.378Z,4.23
2018-08-23T17:17:25.734Z,4.13
2018-08-23T17:20:26.048Z,4.10
2018-08-23T17:23:09.786Z,4.13
2018-08-23T17:34:36.871Z,3.20
2018-08-23T17:37:12.244Z,3.07
2018-08-23T17:39:54.729Z,3.03
2018-08-23T17:42:33.602Z,3.20
2018-08-23T17:45:08.332Z,2.67
2018-08-23T17:47:53.368Z,2.90
2018-08-23T17:50:32.766Z,3.00
2018-08-23T17:53:09.224Z,3.10
2018-08-23T17:55:57.283Z,3.13
2018-08-23T17:58:31.855Z,2.30
2018-08-23T18:01:09.492Z,2.90
2018-08-23T18:03:47.291Z,2.70
2018-08-23T18:06:31.692Z,2.63
2018-08-23T18:13:28.777Z,2.57
2018-08-23T18:17:10.572Z,2.30
2018-08-23T18:19:52.208Z,2.20
2018-08-23T18:22:28.947Z,2.83
2018-08-23T18:25:07.673Z,2.30
2018-08-23T18:27:48.698Z,2.10
2018-08-23T18:30:26.392Z,1.90
2018-08-23T18:33:01.047Z,2.07
2018-08-23T18:35:34.487Z,2.23
2018-08-23T18:38:09.106Z,2.07
2018-08-23T18:40:44.022Z,2.57
2018-08-23T18:43:25.951Z,2.53
2018-08-23T18:46:03.187Z,1.97
2018-08-23T18:48:39.727Z,1.87
2018-08-23T18:51:14.581Z,2.33
2018-08-23T18:53:47.937Z,2.63
2018-08-23T18:56:20.991Z,2.27
2018-08-23T18:58:54.291Z,2.00
2018-08-23T19:01:28.084Z,2.20
2018-08-23T19:04:04.228Z,2.33
2018-08-23T19:06:39.879Z,2.50
2018-08-23T19:09:15.584Z,2.73
2018-08-23T19:11:48.942Z,2.30
2018-08-23T19:14:26.310Z,2.57
2018-08-23T19:17:03.941Z,2.23
2018-08-23T19:19:42.397Z,2.03
2018-08-23T19:24:53.594Z,2.00
2018-08-23T19:27:26.786Z,1.87
2018-08-23T19:30:02.754Z,2.27
2018-08-23T19:32:36.589Z,2.30
2018-08-23T19:35:09.869Z,2.60
2018-08-23T19:37:45.685Z,1.80
2018-08-23T19:40:21.750Z,2.40
2018-08-23T19:42:55.312Z,2.17
2018-08-23T19:45:29.784Z,2.67
2018-08-23T19:48:03.103Z,2.40
2018-08-23T19:50:38.069Z,2.40
2018-08-23T19:53:12.746Z,2.70
2018-08-23T19:55:47.990Z,2.20
2018-08-23T19:58:23.035Z,2.40
2018-08-23T20:00:56.229Z,2.20
2018-08-23T20:03:31.125Z,2.00
2018-08-23T20:06:04.499Z,2.33
2018-08-23T20:08:37.841Z,2.53
2018-08-23T20:11:11.061Z,2.60
2018-08-23T20:13:47.084Z,2.57
2018-08-23T20:16:22.862Z,2.13
2018-08-23T20:18:56.284Z,2.20
2018-08-23T20:21:30.449Z,2.50
2018-08-23T20:24:05.871Z,2.30
2018-08-23T20:26:43.666Z,2.23
2018-08-23T20:29:22.132Z,2.43
2018-08-23T20:31:57.502Z,2.17
2018-08-23T20:34:35.283Z,2.43
2018-08-23T20:37:14.352Z,2.30
2018-08-23T20:39:48.357Z,2.70
2018-08-23T20:42:27.652Z,2.50
2018-08-23T20:45:03.698Z,2.10
2018-08-23T20:47:38.061Z,1.97
2018-08-23T20:50:23.042Z,2.20
2018-08-23T20:52:58.708Z,2.07
2018-08-23T20:55:32.117Z,2.40
2018-08-23T20:58:06.876Z,2.30
2018-08-23T21:00:47.214Z,2.30
2018-08-23T21:03:29.520Z,2.47
2018-08-23T21:06:07.081Z,2.10
2018-08-23T21:08:41.988Z,2.30
2018-08-23T21:11:25.325Z,2.10
2018-08-23T21:14:12.863Z,2.73
2018-08-23T21:16:46.080Z,2.47
2018-08-23T21:19:21.020Z,2.20
2018-08-23T21:21:55.099Z,2.20
2018-08-23T21:24:28.854Z,2.63
2018-08-23T21:27:03.699Z,2.43
2018-08-23T21:29:40.417Z,2.20
2018-08-23T21:32:20.542Z,2.13
2018-08-23T21:34:57.123Z,2.97
2018-08-23T21:37:31.660Z,2.80
2018-08-23T21:40:07.734Z,2.50
2018-08-23T21:42:42.818Z,2.70
2018-08-23T21:45:17.234Z,2.10
2018-08-23T21:47:50.793Z,2.83
2018-08-23T21:50:25.514Z,2.47
2018-08-23T21:53:03.449Z,2.40
2018-08-23T21:55:41.545Z,2.70
2018-08-23T21:58:26.700Z,2.67
2018-08-23T22:01:05.729Z,2.80
2018-08-23T22:03:44.804Z,2.60
2018-08-23T22:06:20.192Z,2.87
2018-08-23T22:09:00.527Z,2.83
2018-08-23T22:11:41.795Z,2.47
2018-08-23T22:14:18.838Z,2.67
2018-08-23T22:16:59.768Z,3.07
2018-08-23T22:19:33.368Z,2.80
2018-08-23T22:22:08.984Z,2.90
2018-08-23T22:24:43.715Z,3.73
2018-08-23T22:27:17.929Z,3.70
2018-08-23T22:29:51.429Z,3.40
2018-08-23T22:32:25.804Z,3.27
2018-08-23T22:35:00.030Z,3.37
2018-08-23T22:37:33.299Z,4.37
2018-08-23T22:40:07.234Z,4.33
2018-08-23T22:42:47.325Z,5.17
2018-08-23T22:45:23.770Z,6.40
2018-08-23T22:47:58.712Z,6.57
2018-08-23T22:50:34.894Z,6.97
2018-08-23T22:53:09.704Z,6.27
2018-08-23T22:55:44.764Z,6.57
2018-08-23T22:58:17.964Z,7.67
2018-08-23T23:00:52.000Z,8.20
2018-08-23T23:03:29.725Z,9.97
2018-08-23T23:06:03.636Z,11.07
2018-08-23T23:08:38.280Z,12.43
2018-08-23T23:11:12.873Z,16.82
2018-08-23T23:13:46.216Z,13.23
2018-08-23T23:16:19.805Z,14.07
2018-08-23T23:18:53.108Z,13.47
2018-08-23T23:21:28.178Z,14.07
2018-08-23T23:24:01.606Z,13.23
2018-08-23T23:26:34.873Z,15.17
2018-08-23T23:29:09.748Z,13.77
2018-08-23T23:31:43.873Z,13.03
2018-08-23T23:34:18.260Z,12.47
2018-08-23T23:36:51.218Z,11.40
2018-08-23T23:39:25.328Z,12.13
2018-08-23T23:41:59.791Z,11.97
2018-08-23T23:44:34.793Z,11.67
2018-08-23T23:47:08.486Z,11.40
2018-08-23T23:49:43.876Z,10.27
2018-08-23T23:52:16.915Z,11.40
2018-08-23T23:54:50.763Z,10.60
2018-08-23T23:57:24.780Z,10.50
2018-08-23T23:59:58.057Z,10.47
